Time;durP1;ratioP1;P1;durP2;ratioP2;P2;SDS_P1;SDS_P2;PMS_P1;PMS_P2;Temp;Humidity;BMP_temperature;BMP_pressure;BME280_temperature;BME280_humidity;BME280_pressure;Samples;Min_cycle;Max_cycle;Signal;HPM_P1;HPM_P2
2022/11/06 00:01:54;;;;;;;8.80;4.70;;;8.80;99.90;;;-144.05;68.13;125687.94;5015413;28;20347;-77
2022/11/06 00:04:20;;;;;;;11.82;5.10;;;8.80;99.90;;;-144.05;67.95;125687.94;5016023;28;20030;-77
2022/11/06 00:06:48;;;;;;;12.98;4.88;;;8.80;99.90;;;-144.05;67.76;125687.94;5015188;28;20030;-79
2022/11/06 00:09:19;;;;;;;7.65;4.75;;;8.80;99.90;;;-144.05;67.54;125687.94;5016222;28;20034;-76
2022/11/06 00:11:49;;;;;;;8.25;5.15;;;8.80;99.90;;;-144.05;67.83;125687.94;5014684;28;20124;-78
2022/11/06 00:14:16;;;;;;;12.82;6.55;;;8.80;99.90;;;-144.05;68.29;125687.94;5014458;28;20045;-77
2022/11/06 00:16:45;;;;;;;8.85;4.38;;;8.80;99.90;;;-144.05;67.93;125687.94;5015168;28;20026;-78
2022/11/06 00:19:12;;;;;;;8.75;4.93;;;8.80;99.90;;;-144.05;68.37;125687.94;5014451;28;20054;-78
2022/11/06 00:21:38;;;;;;;12.93;4.93;;;8.80;99.90;;;-144.05;68.01;125687.94;4998132;28;20021;-76
2022/11/06 00:24:08;;;;;;;8.73;4.63;;;8.80;99.90;;;-144.05;68.60;125687.94;5014621;28;20029;-77
2022/11/06 00:26:35;;;;;;;12.85;4.50;;;8.90;99.90;;;-144.05;67.66;125687.94;5014824;28;20527;-77
2022/11/06 00:29:03;;;;;;;7.45;4.28;;;8.90;99.90;;;-144.05;67.41;125687.94;5013921;28;20400;-76
2022/11/06 00:31:36;;;;;;;7.20;4.45;;;8.90;99.90;;;-144.05;67.02;125687.94;5014823;28;20022;-79
2022/11/06 00:34:07;;;;;;;10.95;3.72;;;9.00;99.90;;;-144.05;66.81;125687.94;5014682;28;20437;-77
2022/11/06 00:36:34;;;;;;;10.52;4.35;;;9.00;99.90;;;-144.05;66.95;125687.94;5014866;28;20026;-79
2022/11/06 00:39:01;;;;;;;9.85;4.50;;;9.00;99.90;;;-144.05;66.83;125687.94;5014862;28;20105;-76
2022/11/06 00:41:28;;;;;;;9.52;3.83;;;9.10;99.90;;;-144.05;66.91;125687.94;5014509;28;20030;-78
2022/11/06 00:43:59;;;;;;;4.80;3.60;;;9.00;99.90;;;-144.05;66.89;125687.94;5013392;28;20026;-78
2022/11/06 00:46:26;;;;;;;6.20;3.53;;;9.00;99.90;;;-144.05;67.02;125687.94;5014428;28;20041;-77
2022/11/06 00:48:53;;;;;;;8.90;3.83;;;9.00;99.90;;;-144.05;67.27;125687.94;5014289;28;20033;-76
2022/11/06 00:51:35;;;;;;;9.32;3.75;;;8.90;99.90;;;-144.05;67.76;125687.94;5013071;28;20030;-77
2022/11/06 00:54:06;;;;;;;5.65;3.30;;;8.90;99.90;;;-144.05;67.66;125687.94;5013489;28;20041;-78
2022/11/06 00:56:33;;;;;;;6.68;3.13;;;8.80;99.90;;;-144.05;68.12;125687.94;4996083;28;20045;-79
2022/11/06 00:59:03;;;;;;;9.23;4.07;;;8.70;99.90;;;-144.05;68.00;125687.94;5013487;28;20101;-79
2022/11/06 01:01:37;;;;;;;7.00;3.70;;;8.70;99.90;;;-144.05;67.95;125687.94;5014279;28;20026;-77
2022/11/06 01:04:21;;;;;;;8.80;3.90;;;8.60;99.90;;;-144.05;68.04;125687.94;5014928;28;20030;-78
2022/11/06 01:06:51;;;;;;;11.57;3.67;;;8.70;99.90;;;-144.05;68.11;125687.94;5014439;28;20034;-78
2022/11/06 01:09:22;;;;;;;7.28;3.25;;;8.60;99.90;;;-144.05;67.79;125687.94;5015253;28;20352;-78
2022/11/06 01:11:57;;;;;;;10.13;3.40;;;8.70;99.90;;;-144.05;67.76;125687.94;5015443;28;20033;-76
2022/11/06 01:14:24;;;;;;;6.05;3.10;;;8.60;99.90;;;-144.05;68.03;125687.94;5014252;28;20473;-77
2022/11/06 01:16:51;;;;;;;5.72;3.53;;;8.60;99.90;;;-144.05;68.19;125687.94;5015462;28;20409;-78
2022/11/06 01:19:20;;;;;;;5.75;3.15;;;8.50;99.90;;;-144.05;68.10;125687.94;4997087;28;20170;-78
2022/11/06 01:21:54;;;;;;;7.18;3.53;;;8.50;99.90;;;-144.05;68.72;125687.94;5014939;28;20084;-78
2022/11/06 01:24:25;;;;;;;11.85;3.67;;;8.50;99.90;;;-144.05;68.72;125687.94;5014707;28;20022;-79
2022/11/06 01:26:53;;;;;;;8.43;3.08;;;8.50;99.90;;;-144.05;68.82;125687.94;5014504;28;20397;-77
2022/11/06 01:29:20;;;;;;;9.02;3.53;;;8.50;99.90;;;-144.05;69.07;125687.94;5013990;28;20042;-78
2022/11/06 01:31:50;;;;;;;6.10;3.15;;;8.40;99.90;;;-144.05;68.56;125687.94;5015105;28;20029;-78
2022/11/06 01:34:18;;;;;;;9.88;2.90;;;8.40;99.90;;;-144.05;68.86;125687.94;5015254;28;20052;-77
2022/11/06 01:36:45;;;;;;;8.48;3.15;;;8.40;99.90;;;-144.05;68.97;125687.94;5014304;28;20578;-77
2022/11/06 01:39:14;;;;;;;6.80;3.03;;;8.40;99.90;;;-144.05;69.11;125687.94;5014096;28;20029;-76
2022/11/06 01:41:49;;;;;;;4.22;2.60;;;8.30;99.90;;;-144.05;68.60;125687.94;5013789;28;20026;-78
2022/11/06 01:44:42;;;;;;;5.90;2.88;;;8.40;99.90;;;-144.05;68.94;125687.94;5014201;28;20573;-77
2022/11/06 01:47:34;;;;;;;7.55;3.13;;;8.30;99.90;;;-144.05;69.43;125687.94;5013982;28;20033;-78
2022/11/06 01:50:14;;;;;;;5.35;2.95;;;8.30;99.90;;;-144.05;69.53;125687.94;5012229;28;20373;-76
2022/11/06 01:52:44;;;;;;;9.43;2.88;;;8.30;99.90;;;-144.05;69.42;125687.94;5013217;28;20393;-76
2022/11/06 01:55:33;;;;;;;8.82;3.00;;;8.30;99.90;;;-144.05;69.51;125687.94;4996096;28;20113;-76
2022/11/06 01:58:06;;;;;;;5.82;2.92;;;8.20;99.90;;;-144.05;69.80;125687.94;5013822;28;20029;-78
2022/11/06 02:00:32;;;;;;;4.82;3.20;;;8.30;99.90;;;-144.05;69.60;125687.94;5014025;28;20041;-78
2022/11/06 02:03:01;;;;;;;6.80;2.78;;;8.30;99.90;;;-144.05;69.37;125687.94;4996803;28;20026;-77
2022/11/06 02:05:27;;;;;;;9.10;2.95;;;8.30;99.90;;;-144.05;69.52;125687.94;4995726;28;20025;-78
2022/11/06 02:07:56;;;;;;;6.65;2.78;;;8.30;99.90;;;-144.05;69.15;125687.94;5012633;28;20261;-78
2022/11/06 02:10:22;;;;;;;8.07;2.92;;;8.30;99.90;;;-144.05;68.67;125687.94;5014770;28;20041;-76
2022/11/06 02:13:41;;;;;;;6.28;2.55;;;8.30;99.90;;;-144.05;68.87;125687.94;5012664;28;20037;-78
2022/11/06 02:16:55;;;;;;;6.60;2.75;;;8.30;99.90;;;-144.05;69.42;125687.94;5012907;28;20053;-79
2022/11/06 02:20:23;;;;;;;6.13;3.20;;;8.30;99.90;;;-144.05;69.52;125687.94;5012857;28;20025;-78
2022/11/06 02:23:23;;;;;;;8.10;3.35;;;8.30;99.90;;;-144.05;69.06;125687.94;5014066;28;20042;-79
2022/11/06 02:26:07;;;;;;;7.22;3.00;;;8.30;99.90;;;-144.05;69.26;125687.94;5014333;28;20036;-77
2022/11/06 02:28:56;;;;;;;9.20;2.75;;;8.30;99.90;;;-144.05;68.89;125687.94;5013422;28;20022;-78
2022/11/06 02:31:31;;;;;;;7.38;2.70;;;8.30;99.90;;;-144.05;68.69;125687.94;5012820;28;20022;-78
2022/11/06 02:34:07;;;;;;;4.60;2.10;;;8.20;99.90;;;-144.05;68.65;125687.94;5017086;28;20034;-77
2022/11/06 02:36:46;;;;;;;8.77;2.80;;;8.30;99.90;;;-144.05;69.27;125687.94;5016820;28;20026;-77
2022/11/06 02:39:19;;;;;;;4.85;2.92;;;8.30;99.90;;;-144.05;68.70;125687.94;5017527;28;20497;-78
2022/11/06 02:41:50;;;;;;;5.80;3.05;;;8.30;99.90;;;-144.05;69.27;125687.94;5017476;28;20120;-76
2022/11/06 02:44:26;;;;;;;11.32;3.13;;;8.30;99.90;;;-144.05;69.03;125687.94;5017865;28;20030;-75
2022/11/06 02:47:07;;;;;;;6.57;2.47;;;8.30;99.90;;;-144.05;68.80;125687.94;5015646;28;20091;-77
2022/11/06 02:49:57;;;;;;;6.85;2.53;;;8.30;99.90;;;-144.05;68.81;125687.94;5016858;28;20033;-76
2022/11/06 02:52:36;;;;;;;6.70;2.85;;;8.30;99.90;;;-144.05;68.50;125687.94;5017170;28;20029;-78
2022/11/06 02:55:16;;;;;;;6.93;2.58;;;8.30;99.90;;;-144.05;69.04;125687.94;5016812;28;20033;-77
2022/11/06 02:57:54;;;;;;;7.20;3.22;;;8.20;99.90;;;-144.05;68.63;125687.94;5016750;28;20076;-77
2022/11/06 03:00:22;;;;;;;6.20;2.53;;;8.20;99.90;;;-144.05;68.71;125687.94;5017584;28;20026;-78
2022/11/06 03:03:05;;;;;;;6.22;2.30;;;8.30;99.90;;;-144.05;68.18;125687.94;5017394;28;20053;-78
2022/11/06 03:06:10;;;;;;;9.35;2.90;;;8.30;99.90;;;-144.05;68.47;125687.94;5016337;28;20045;-75
2022/11/06 03:09:05;;;;;;;6.78;2.40;;;8.30;99.90;;;-144.05;68.55;125687.94;5014904;28;20048;-78
2022/11/06 03:11:37;;;;;;;8.90;3.08;;;8.30;99.90;;;-144.05;68.92;125687.94;5015617;28;20109;-76
2022/11/06 03:14:31;;;;;;;8.63;2.97;;;8.30;99.90;;;-144.05;69.13;125687.94;5015356;28;20164;-78
2022/11/06 03:17:36;;;;;;;6.47;2.83;;;8.20;99.90;;;-144.05;69.41;125687.94;4997633;28;20148;-78
2022/11/06 03:20:39;;;;;;;7.63;2.55;;;8.20;99.90;;;-144.05;69.50;125687.94;5014704;28;20030;-78
2022/11/06 03:23:48;;;;;;;10.98;2.65;;;8.20;99.90;;;-144.05;69.88;125687.94;5013827;28;20057;-77
2022/11/06 03:26:40;;;;;;;5.50;2.35;;;8.20;99.90;;;-144.05;68.89;125687.94;5013435;28;20771;-77
2022/11/06 03:29:15;;;;;;;7.18;2.40;;;8.20;99.90;;;-144.05;69.29;125687.94;4994950;28;20037;-76
2022/11/06 03:32:03;;;;;;;8.95;3.00;;;8.20;99.90;;;-144.05;69.77;125687.94;5013151;28;20105;-78
2022/11/06 03:34:48;;;;;;;10.18;2.95;;;8.10;99.90;;;-144.05;69.95;125687.94;5015489;28;20054;-78
2022/11/06 03:37:31;;;;;;;7.38;2.75;;;8.10;99.90;;;-144.05;69.74;125687.94;4999402;28;20134;-79
2022/11/06 03:40:07;;;;;;;10.32;3.33;;;8.10;99.90;;;-144.05;69.77;125687.94;5014934;28;20034;-79
2022/11/06 03:42:38;;;;;;;6.00;2.58;;;8.10;99.90;;;-144.05;70.32;125687.94;5013919;28;20026;-78
2022/11/06 03:45:18;;;;;;;9.65;3.17;;;8.10;99.90;;;-144.05;70.05;125687.94;4997485;28;20205;-80
2022/11/06 03:47:59;;;;;;;6.78;3.03;;;8.10;99.90;;;-144.05;69.48;125687.94;5015798;28;20038;-78
2022/11/06 03:50:48;;;;;;;8.43;2.78;;;8.10;99.90;;;-144.05;70.00;125687.94;5015960;28;20057;-79
2022/11/06 03:53:38;;;;;;;6.53;2.20;;;8.10;99.90;;;-144.05;70.23;125687.94;5014196;28;20069;-77
2022/11/06 03:56:42;;;;;;;7.70;2.67;;;8.10;99.90;;;-144.05;70.12;125687.94;5016469;28;20037;-77
2022/11/06 03:59:13;;;;;;;11.90;3.55;;;8.10;99.90;;;-144.05;70.36;125687.94;5014500;28;20037;-78
2022/11/06 04:01:46;;;;;;;5.43;2.75;;;8.10;99.90;;;-144.05;69.97;125687.94;5017032;28;20083;-79
2022/11/06 04:04:37;;;;;;;6.05;2.60;;;8.10;99.90;;;-144.05;70.05;125687.94;5016033;28;20030;-76
2022/11/06 04:07:13;;;;;;;7.32;2.40;;;8.10;99.90;;;-144.05;70.20;125687.94;5015876;28;20037;-78
2022/11/06 04:15:31;;;;;;;13.00;3.03;;;8.00;99.90;;;-144.05;70.48;125687.94;5015473;28;19939;-77
2022/11/06 04:17:56;;;;;;;8.50;3.03;;;7.90;99.90;;;-144.05;70.66;125687.94;5015254;28;20106;-78
2022/11/06 04:27:51;;;;;;;5.35;2.20;;;7.90;99.90;;;-144.05;70.90;125687.94;4954394;29;20114;-77
2022/11/06 04:30:18;;;;;;;7.20;2.65;;;8.00;99.90;;;-144.05;71.01;125687.94;4997534;28;20505;-78
2022/11/06 04:33:11;;;;;;;9.57;2.33;;;8.00;99.90;;;-144.05;71.24;125687.94;5014652;28;20037;-78
2022/11/06 04:36:13;;;;;;;6.70;3.30;;;8.00;99.90;;;-144.05;70.71;125687.94;5015489;28;20058;-78
2022/11/06 04:38:59;;;;;;;7.43;2.30;;;8.10;99.90;;;-144.05;70.00;125687.94;5015105;28;20061;-79
2022/11/06 04:42:04;;;;;;;8.02;2.13;;;8.10;99.90;;;-144.05;69.88;125687.94;5014648;28;20026;-76
2022/11/06 04:44:43;;;;;;;4.88;1.90;;;8.10;99.90;;;-144.05;70.34;125687.94;5000807;28;20038;-78
2022/11/06 04:47:18;;;;;;;5.13;1.95;;;8.10;99.90;;;-144.05;70.23;125687.94;4997060;28;20113;-76
2022/11/06 04:49:49;;;;;;;4.93;2.30;;;8.10;99.90;;;-144.05;70.54;125687.94;4996925;28;20033;-79
2022/11/06 04:52:25;;;;;;;9.27;2.40;;;8.10;99.90;;;-144.05;70.67;125687.94;5016215;28;20276;-77
2022/11/06 04:54:55;;;;;;;10.15;1.92;;;8.10;99.90;;;-144.05;70.93;125687.94;5023257;28;20160;-79
2022/11/06 04:57:25;;;;;;;9.27;2.58;;;8.10;99.90;;;-144.05;70.77;125687.94;5027444;28;20037;-78
2022/11/06 04:59:53;;;;;;;9.77;2.45;;;8.10;99.90;;;-144.05;70.19;125687.94;5030357;28;20037;-78
2022/11/06 05:02:18;;;;;;;4.10;1.83;;;8.10;99.90;;;-144.05;70.60;125687.94;5022676;28;20029;-78
2022/11/06 05:04:44;;;;;;;5.63;2.00;;;8.10;99.90;;;-144.05;70.45;125687.94;5021108;28;20065;-76
2022/11/06 05:07:15;;;;;;;4.72;1.95;;;8.10;99.90;;;-144.05;70.92;125687.94;5021968;28;20401;-77
2022/11/06 05:09:41;;;;;;;5.38;2.17;;;8.10;99.90;;;-144.05;70.42;125687.94;5004388;28;20029;-79
2022/11/06 05:12:08;;;;;;;6.32;2.53;;;8.10;99.90;;;-144.05;70.77;125687.94;5018203;28;20087;-79
2022/11/06 05:14:34;;;;;;;5.07;1.98;;;8.10;99.90;;;-144.05;70.17;125687.94;5014318;28;20033;-78
2022/11/06 05:17:00;;;;;;;8.68;2.20;;;8.10;99.90;;;-144.05;70.54;125687.94;5014612;28;20053;-78
2022/11/06 05:19:26;;;;;;;8.75;2.20;;;8.00;99.90;;;-144.05;70.84;125687.94;5014420;28;20026;-77
2022/11/06 05:24:36;;;;;;;7.70;2.20;;;8.10;99.90;;;-144.05;70.24;125687.94;5014741;28;20040;-79
2022/11/06 05:27:02;;;;;;;7.65;2.63;;;8.20;99.90;;;-144.05;70.17;125687.94;5014538;28;20030;-76
2022/11/06 05:29:28;;;;;;;7.75;2.20;;;8.20;99.90;;;-144.05;71.13;125687.94;5014318;28;20481;-77
2022/11/06 05:31:53;;;;;;;8.18;1.83;;;8.20;99.90;;;-144.05;70.56;125687.94;5013912;28;20057;-76
2022/11/06 05:34:20;;;;;;;5.03;1.70;;;8.20;99.90;;;-144.05;70.91;125687.94;5013033;28;20129;-77
2022/11/06 05:36:46;;;;;;;12.30;2.38;;;8.20;99.90;;;-144.05;70.71;125687.94;5014790;28;20103;-78
2022/11/06 05:39:12;;;;;;;6.90;2.10;;;8.20;99.90;;;-144.05;70.47;125687.94;5013139;28;20029;-78
2022/11/06 05:41:37;;;;;;;7.00;2.00;;;8.20;99.90;;;-144.05;71.23;125687.94;5014912;28;20136;-76
2022/11/06 05:44:04;;;;;;;9.48;1.85;;;8.20;99.90;;;-144.05;70.96;125687.94;5014991;28;20030;-76
2022/11/06 05:46:31;;;;;;;6.43;1.42;;;8.20;99.90;;;-144.05;70.52;125687.94;4995073;28;20378;-77
2022/11/06 05:48:56;;;;;;;5.97;2.00;;;8.20;99.90;;;-144.05;70.42;125687.94;5013616;28;20482;-79
2022/11/06 05:51:22;;;;;;;6.18;2.15;;;8.30;99.90;;;-144.05;70.91;125687.94;5012371;28;20033;-75
2022/11/06 05:53:48;;;;;;;7.00;1.45;;;8.20;99.90;;;-144.05;70.84;125687.94;5013938;28;20466;-78
2022/11/06 05:56:14;;;;;;;5.40;2.20;;;8.20;99.90;;;-144.05;70.81;125687.94;5014273;28;20018;-77
2022/11/06 05:58:40;;;;;;;7.10;1.77;;;8.20;99.90;;;-144.05;70.50;125687.94;5014619;28;20097;-78
2022/11/06 06:01:06;;;;;;;9.52;2.72;;;8.20;99.90;;;-144.05;70.52;125687.94;5014860;28;20447;-77
2022/11/06 06:03:31;;;;;;;8.30;2.00;;;8.20;99.90;;;-144.05;70.71;125687.94;4997257;28;20532;-79
2022/11/06 06:05:57;;;;;;;6.13;1.88;;;8.20;99.90;;;-144.05;70.61;125687.94;5014897;28;20057;-79
2022/11/06 06:08:23;;;;;;;4.80;2.13;;;8.30;99.90;;;-144.05;70.36;125687.94;5018246;28;20129;-78
2022/11/06 06:10:49;;;;;;;4.72;1.88;;;8.30;99.90;;;-144.05;70.76;125687.94;5001103;28;20041;-79
2022/11/06 06:13:16;;;;;;;3.90;1.63;;;8.20;99.90;;;-144.05;70.81;125687.94;5018436;28;20042;-79
2022/11/06 06:15:43;;;;;;;4.43;1.60;;;8.30;99.90;;;-144.05;70.78;125687.94;5019468;28;20030;-77
2022/11/06 06:18:09;;;;;;;3.80;1.73;;;8.20;99.90;;;-144.05;70.62;125687.94;5018501;28;20044;-79
2022/11/06 06:20:37;;;;;;;8.55;1.92;;;8.10;99.90;;;-144.05;71.43;125687.94;5016637;28;20041;-77
2022/11/06 06:23:04;;;;;;;6.22;2.10;;;8.20;99.90;;;-144.05;70.86;125687.94;5017616;28;20029;-78
2022/11/06 06:25:30;;;;;;;4.50;1.63;;;8.10;99.90;;;-144.05;71.23;125687.94;5017810;28;20030;-77
2022/11/06 06:27:57;;;;;;;9.57;2.38;;;8.20;99.90;;;-144.05;70.79;125687.94;5018117;28;20037;-78
2022/11/06 06:30:24;;;;;;;6.00;2.13;;;8.20;99.90;;;-144.05;70.81;125687.94;4999960;28;20030;-79
2022/11/06 06:32:53;;;;;;;5.93;1.85;;;8.20;99.90;;;-144.05;71.29;125687.94;5017659;28;20387;-78
2022/11/06 06:35:19;;;;;;;5.90;1.98;;;8.30;99.90;;;-144.05;70.89;125687.94;5017279;28;20505;-78
2022/11/06 06:37:53;;;;;;;9.48;2.22;;;8.20;99.90;;;-144.05;70.78;125687.94;5017119;28;20030;-79
2022/11/06 06:40:20;;;;;;;6.97;1.85;;;8.20;99.90;;;-144.05;70.45;125687.94;5017114;28;20288;-76
2022/11/06 06:42:45;;;;;;;7.68;1.83;;;8.20;99.90;;;-144.05;70.33;125687.94;5017757;28;20030;-79
2022/11/06 06:45:12;;;;;;;7.55;1.40;;;8.20;99.90;;;-144.05;70.61;125687.94;5017820;28;20470;-78
2022/11/06 06:47:38;;;;;;;4.05;1.75;;;8.20;99.90;;;-144.05;71.49;125687.94;5017373;28;20057;-77
2022/11/06 06:50:04;;;;;;;6.75;1.92;;;8.10;99.90;;;-144.05;70.70;125687.94;5016808;28;20037;-79
2022/11/06 06:52:30;;;;;;;5.70;1.80;;;8.10;99.90;;;-144.05;70.91;125687.94;5018337;28;20030;-78
2022/11/06 06:54:56;;;;;;;6.22;1.70;;;8.20;99.90;;;-144.05;70.70;125687.94;5018697;28;20137;-79
2022/11/06 06:57:21;;;;;;;2.88;1.35;;;8.20;99.90;;;-144.05;70.11;125687.94;5019544;28;20030;-79
2022/11/06 06:59:47;;;;;;;9.45;1.90;;;8.20;99.90;;;-144.05;70.10;125687.94;5017674;28;20044;-78
2022/11/06 07:02:13;;;;;;;6.43;2.40;;;8.20;99.90;;;-144.05;69.97;125687.94;5016667;28;20034;-77
2022/11/06 07:04:39;;;;;;;6.78;1.80;;;8.20;99.90;;;-144.05;70.54;125687.94;5014567;28;20113;-79
2022/11/06 07:07:05;;;;;;;8.07;2.22;;;8.30;99.90;;;-144.05;70.14;125687.94;5017513;28;20511;-79
2022/11/06 07:09:32;;;;;;;6.85;1.70;;;8.30;99.90;;;-144.05;69.35;125687.94;5016852;28;20103;-75
2022/11/06 07:11:58;;;;;;;6.72;1.52;;;8.50;99.90;;;-144.05;69.04;125687.94;5018204;28;20021;-77
2022/11/06 07:14:24;;;;;;;7.10;2.28;;;8.60;99.90;;;-144.05;68.72;125687.94;5018030;28;20072;-76
2022/11/06 07:16:50;;;;;;;7.55;1.60;;;8.70;99.90;;;-144.05;67.42;125687.94;5018760;28;20057;-76
2022/11/06 07:19:16;;;;;;;8.50;1.40;;;8.80;99.90;;;-144.05;67.63;125687.94;5017938;28;20049;-75
2022/11/06 07:21:42;;;;;;;4.68;1.50;;;8.90;99.90;;;-144.05;67.90;125687.94;5018808;28;20026;-78
2022/11/06 07:24:08;;;;;;;5.78;1.70;;;9.00;99.90;;;-144.05;67.22;125687.94;5021187;28;20056;-76
2022/11/06 07:26:34;;;;;;;5.20;1.42;;;9.10;99.90;;;-144.05;66.35;125687.94;5002197;28;20049;-77
2022/11/06 07:29:00;;;;;;;5.95;1.75;;;9.10;99.90;;;-144.05;66.34;125687.94;5018011;28;20025;-75
2022/11/06 07:31:26;;;;;;;5.78;1.73;;;9.20;99.90;;;-144.05;65.81;125687.94;5019003;28;20026;-77
2022/11/06 07:33:52;;;;;;;6.50;1.60;;;9.30;99.90;;;-144.05;65.17;125687.94;5018412;28;20026;-78
2022/11/06 07:36:18;;;;;;;5.78;1.80;;;9.40;99.90;;;-144.05;65.25;125687.94;5019833;28;20026;-76
2022/11/06 07:38:44;;;;;;;7.10;1.92;;;9.40;99.90;;;-144.05;65.30;125687.94;5018121;28;20021;-78
2022/11/06 07:41:13;;;;;;;5.38;1.88;;;9.50;99.90;;;-144.05;65.43;125687.94;5018276;28;20030;-75
2022/11/06 07:43:41;;;;;;;5.13;1.60;;;9.50;99.90;;;-144.05;65.50;125687.94;5017309;28;20021;-78
2022/11/06 07:46:11;;;;;;;5.57;1.50;;;9.50;99.90;;;-144.05;64.63;125687.94;5018992;28;20049;-77
2022/11/06 07:48:38;;;;;;;3.40;1.42;;;9.60;99.90;;;-144.05;64.89;125687.94;5017480;28;20041;-75
2022/11/06 07:51:09;;;;;;;3.80;1.48;;;9.70;99.90;;;-144.05;64.65;125687.94;5021443;28;20022;-77
2022/11/06 07:53:36;;;;;;;7.05;2.00;;;9.80;99.90;;;-144.05;64.49;125687.94;5016275;28;20045;-77
2022/11/06 07:56:03;;;;;;;4.43;1.70;;;9.90;99.90;;;-144.05;63.91;125687.94;5015597;28;20382;-76
2022/11/06 07:58:29;;;;;;;3.88;1.33;;;10.00;99.90;;;-144.05;63.38;125687.94;5014367;28;20053;-78
2022/11/06 08:00:57;;;;;;;6.53;1.70;;;10.10;99.90;;;-144.05;64.44;125687.94;5015600;28;20030;-77
2022/11/06 08:03:26;;;;;;;2.97;1.40;;;10.00;99.90;;;-144.05;63.54;125687.94;4998811;28;20168;-76
2022/11/06 08:05:51;;;;;;;6.45;1.75;;;10.10;99.90;;;-144.05;63.49;125687.94;5016160;28;20493;-75
2022/11/06 08:08:17;;;;;;;2.35;1.40;;;10.10;99.90;;;-144.05;63.28;125687.94;5015504;28;20081;-78
2022/11/06 08:10:43;;;;;;;5.20;1.50;;;10.20;99.90;;;-144.05;63.23;125687.94;5016034;28;20069;-78
2022/11/06 08:13:12;;;;;;;10.30;1.70;;;10.10;99.90;;;-144.05;62.77;125687.94;5015781;28;20079;-79
2022/11/06 08:15:40;;;;;;;4.47;1.30;;;10.30;99.90;;;-144.05;61.95;125687.94;4997785;28;20126;-77
2022/11/06 08:18:08;;;;;;;4.43;1.50;;;10.40;99.90;;;-144.05;61.91;125687.94;5022965;28;20450;-77
2022/11/06 08:20:37;;;;;;;5.82;2.03;;;10.50;99.90;;;-144.05;62.31;125687.94;5015925;28;20405;-78
2022/11/06 08:23:07;;;;;;;5.60;1.98;;;10.60;99.90;;;-144.05;62.24;125687.94;5014819;28;20140;-77
2022/11/06 08:25:34;;;;;;;9.05;1.60;;;10.60;99.90;;;-144.05;61.61;125687.94;4997653;28;20097;-77
2022/11/06 08:28:02;;;;;;;2.55;1.58;;;10.70;99.90;;;-144.05;61.56;125687.94;5014832;28;20052;-76
2022/11/06 08:30:30;;;;;;;4.13;1.50;;;10.80;99.90;;;-144.05;61.82;125687.94;5015373;28;20117;-77
2022/11/06 08:33:04;;;;;;;9.18;1.75;;;10.80;99.90;;;-144.05;61.86;125687.94;5015747;28;20028;-78
2022/11/06 08:35:30;;;;;;;6.68;1.42;;;10.80;99.90;;;-144.05;61.54;125687.94;5014745;28;20037;-79
2022/11/06 08:37:56;;;;;;;4.25;1.35;;;10.90;99.90;;;-144.05;60.66;125687.94;5014368;28;20034;-79
2022/11/06 08:40:23;;;;;;;4.32;1.50;;;11.00;99.90;;;-144.05;60.71;125687.94;5015111;28;20113;-76
2022/11/06 08:42:49;;;;;;;5.85;1.70;;;11.10;99.90;;;-144.05;61.43;125687.94;5013748;28;20042;-76
2022/11/06 08:45:14;;;;;;;4.05;1.73;;;11.10;99.90;;;-144.05;60.91;125687.94;5015918;28;20096;-78
2022/11/06 08:47:40;;;;;;;8.82;2.17;;;11.20;99.90;;;-144.05;60.69;125687.94;5013148;28;20096;-77
2022/11/06 08:50:07;;;;;;;3.97;1.42;;;11.10;99.90;;;-144.05;60.62;125687.94;5015434;28;20032;-78
2022/11/06 08:52:33;;;;;;;5.20;1.30;;;11.30;99.90;;;-144.05;60.61;125687.94;5014153;28;20022;-76
2022/11/06 08:54:59;;;;;;;7.30;1.85;;;11.30;99.90;;;-144.05;60.89;125687.94;5014852;28;20026;-77
2022/11/06 08:57:24;;;;;;;2.95;1.20;;;11.40;99.90;;;-144.05;60.40;125687.94;5014948;28;20029;-77
2022/11/06 08:59:51;;;;;;;7.85;1.70;;;11.50;99.90;;;-144.05;59.17;125687.94;5015748;28;20176;-78
2022/11/06 09:02:17;;;;;;;6.32;1.83;;;11.60;99.90;;;-144.05;59.74;125687.94;5014511;28;20025;-78
2022/11/06 09:04:43;;;;;;;8.80;1.67;;;11.60;99.90;;;-144.05;59.04;125687.94;5013718;28;20378;-78
2022/11/06 09:07:09;;;;;;;9.85;1.70;;;11.60;99.90;;;-144.05;59.07;125687.94;5014823;28;20048;-75
2022/11/06 09:09:35;;;;;;;6.47;1.50;;;11.70;99.90;;;-144.05;59.24;125687.94;5014544;28;20053;-77
2022/11/06 09:12:02;;;;;;;5.05;1.58;;;11.70;99.90;;;-144.05;58.99;125687.94;5013461;28;20425;-78
2022/11/06 09:14:28;;;;;;;2.15;0.90;;;11.90;99.90;;;-144.05;57.89;125687.94;5016442;28;20034;-78
2022/11/06 09:16:54;;;;;;;3.30;1.67;;;12.00;99.90;;;-144.05;59.02;125687.94;5014662;28;20030;-76
2022/11/06 09:19:20;;;;;;;6.05;1.58;;;11.60;99.90;;;-144.05;60.08;125687.94;5014743;28;20033;-77
2022/11/06 09:21:46;;;;;;;4.43;1.35;;;11.40;99.90;;;-144.05;59.12;125687.94;5012356;28;20032;-78
2022/11/06 09:24:12;;;;;;;5.65;1.58;;;11.60;99.90;;;-144.05;58.95;125687.94;5014175;28;20022;-76
2022/11/06 09:26:38;;;;;;;4.95;2.03;;;11.70;99.90;;;-144.05;59.48;125687.94;4996084;28;20183;-77
2022/11/06 09:29:04;;;;;;;8.57;1.55;;;11.50;99.90;;;-144.05;60.05;125687.94;5012368;28;20481;-77
2022/11/06 09:31:30;;;;;;;6.78;2.10;;;11.50;99.90;;;-144.05;59.43;125687.94;5013087;28;20033;-77
2022/11/06 09:33:56;;;;;;;6.95;1.40;;;11.50;99.90;;;-144.05;60.36;125687.94;5011692;28;20401;-75
2022/11/06 09:36:22;;;;;;;7.63;1.52;;;11.40;99.90;;;-144.05;60.96;125687.94;5014790;28;20064;-76
2022/11/06 09:38:48;;;;;;;7.18;1.88;;;11.30;99.90;;;-144.05;60.28;125687.94;5011508;28;20473;-75
2022/11/06 09:42:47;;;;;;;4.68;1.38;;;11.30;99.90;;;-144.05;60.70;125687.94;5013461;28;20029;-78
2022/11/06 09:45:22;;;;;;;3.95;1.23;;;11.30;99.90;;;-144.05;60.66;125687.94;4983327;28;20034;-75
2022/11/06 09:48:42;;;;;;;6.03;1.60;;;11.30;99.90;;;-144.05;61.16;125687.94;5019281;28;20030;-76
2022/11/06 09:51:28;;;;;;;9.75;1.58;;;11.40;99.90;;;-144.05;60.01;125687.94;5016465;28;20060;-77
2022/11/06 09:54:13;;;;;;;;;;;11.40;99.90;;;-144.05;60.18;125687.94;5017740;28;20045;-76
2022/11/06 09:56:44;;;;;;;4.45;1.67;;;11.50;99.90;;;-144.05;60.46;125687.94;5017399;28;19916;-76
2022/11/06 09:59:18;;;;;;;6.10;1.60;;;11.60;99.90;;;-144.05;60.18;125687.94;5017490;28;20049;-77
2022/11/06 10:01:57;;;;;;;5.25;1.60;;;11.60;99.90;;;-144.05;59.94;125687.94;5017467;28;20029;-78
2022/11/06 10:04:54;;;;;;;5.85;1.50;;;11.70;99.90;;;-144.05;59.60;125687.94;4999179;28;20022;-76
2022/11/06 10:07:32;;;;;;;6.95;1.35;;;11.80;99.90;;;-144.05;59.32;125687.94;5017511;28;20030;-76
2022/11/06 10:10:02;;;;;;;4.70;1.50;;;12.00;99.90;;;-144.05;58.80;125687.94;4999275;28;20370;-77
2022/11/06 10:12:44;;;;;;;5.22;1.45;;;12.10;99.90;;;-144.05;57.88;125687.94;5017715;28;20049;-77
2022/11/06 10:15:29;;;;;;;5.38;1.48;;;12.10;99.90;;;-144.05;57.98;125687.94;5017536;28;20128;-75
2022/11/06 10:18:33;;;;;;;2.75;1.13;;;12.10;99.90;;;-144.05;58.31;125687.94;4999204;28;20426;-76
2022/11/06 10:21:27;;;;;;;6.60;1.80;;;12.10;99.90;;;-144.05;57.76;125687.94;5017825;28;20109;-76
2022/11/06 10:24:10;;;;;;;8.32;1.80;;;12.20;99.90;;;-144.05;57.51;125687.94;5016062;28;20026;-77
2022/11/06 10:26:57;;;;;;;7.10;1.52;;;12.30;99.90;;;-144.05;57.44;125687.94;5016186;28;20026;-75
2022/11/06 10:30:09;;;;;;;6.22;1.60;;;12.30;99.90;;;-144.05;57.53;125687.94;5016495;28;20037;-76
2022/11/06 10:33:39;;;;;;;4.70;1.13;;;12.20;99.90;;;-144.05;58.04;125687.94;5014739;28;20226;-77
2022/11/06 10:36:15;;;;;;;8.30;1.83;;;12.10;99.90;;;-144.05;57.91;125687.94;5016380;28;20334;-75
2022/11/06 10:38:47;;;;;;;3.65;1.20;;;12.10;99.90;;;-144.05;57.12;125687.94;5016704;28;20049;-77
2022/11/06 10:41:25;;;;;;;5.50;1.38;;;12.20;99.90;;;-144.05;57.23;125687.94;4998521;28;20084;-77
2022/11/06 10:44:10;;;;;;;7.53;1.30;;;12.30;99.90;;;-144.05;56.74;125687.94;5016178;28;20026;-75
2022/11/06 10:46:47;;;;;;;3.83;1.10;;;12.40;99.90;;;-144.05;56.72;125687.94;5016219;28;20037;-75
2022/11/06 10:49:36;;;;;;;6.00;1.30;;;12.40;99.90;;;-144.05;56.55;125687.94;5014590;28;20033;-74